M I D A S
Marine Information and Data Acquisition System
Tripno 933 of the Zeeleeuw from 2005-08-23 06:48:49 to 2005-08-23 13:22:24
Back to CruiseResearch ActivitiesStationsMapUnderway DataData graphs

EquipmentUnitsComment
TimeDGPSUTC
LatitudeDGPSDM.mWGS84
LongitudeDGPSDM.mWGS84
HeadingGyrodeg 
SOGDGPSknotsSpeed over ground
COGDGPSdegCourse over ground
DepthEcho soundermeters200 kHz
Missing or incorrect values are displayed as -999
Navigation data collected by the RV Zeeleeuw from 2005-08-23 06:32:17 to 2005-08-23 13:21:20
Time Latitude Longitude Heading SOG COG Depth
2005-08-23 06:33:23 51°13.616 2°56.011 114.3 4.1 291 -999
2005-08-23 06:34:23 51°13.655 2°55.906 133.8 5.1 309 -999
2005-08-23 06:35:24 51°13.708 2°55.792 121.9 4.7 299 -999
2005-08-23 06:36:23 51°13.725 2°55.754 79.3 1.9 68 -999
2005-08-23 06:37:23 51°13.711 2°55.717 67.2 1.6 232 -999
2005-08-23 06:38:23 51°13.743 2°55.722 356.5 3.8 348 9.7
2005-08-23 06:39:23 51°13.807 2°55.653 330.7 5.4 327 10.7
2005-08-23 06:40:23 51°13.923 2°55.561 339.7 8 335 10.3
2005-08-23 06:41:23 51°14.066 2°55.46 341.7 9.4 338 10
2005-08-23 06:42:23 51°14.21 2°55.334 329.4 10.2 324 10
2005-08-23 06:43:23 51°14.327 2°55.124 312.4 11.2 308 10.2
2005-08-23 06:44:23 51°14.469 2°54.906 331.5 12.3 322 10.5
2005-08-23 06:45:23 51°14.645 2°54.719 338.3 12.8 329 9.6
2005-08-23 06:46:23 51°14.825 2°54.535 335.9 12.9 328 9.2
2005-08-23 06:47:22 51°15.006 2°54.358 336 12.8 328 8.6
2005-08-23 06:48:23 51°15.191 2°54.178 336.4 12.9 329 9
2005-08-23 06:49:23 51°15.375 2°53.994 335.5 13 327 9.7
2005-08-23 06:50:23 51°15.556 2°53.804 336.2 13 327 10.4
2005-08-23 06:51:23 51°15.736 2°53.617 336.3 12.9 327 11
2005-08-23 06:52:23 51°15.917 2°53.432 336.1 12.9 327 11.5
2005-08-23 06:53:23 51°16.098 2°53.248 336.5 12.9 327 11.8
2005-08-23 06:54:23 51°16.281 2°53.07 338.4 13.1 330 12.2
2005-08-23 06:55:23 51°16.467 2°52.897 337.7 -999 -999 11.8
2005-08-23 06:56:23 51°16.656 2°52.732 341.8 13 334 11
2005-08-23 06:57:23 51°16.848 2°52.579 344 12.9 335 9.8
2005-08-23 06:58:23 51°17.047 2°52.453 346.3 12.9 338 9.8
2005-08-23 06:59:23 51°17.251 2°52.349 358.9 12.7 353 10.3
2005-08-23 07:00:23 51°17.459 2°52.333 6.1 12.5 358 10.4
2005-08-23 07:01:22 51°17.664 2°52.332 9.9 12.4 2 10.3
2005-08-23 07:02:23 51°17.866 2°52.383 21.6 12.3 14 10.4
2005-08-23 07:03:23 51°18.052 2°52.507 34.8 12.1 28 10.5
2005-08-23 07:04:23 51°18.21 2°52.7 45.1 11.9 39 10.7
2005-08-23 07:05:23 51°18.327 2°52.955 59.6 12 55 11.3
2005-08-23 07:06:23 51°18.402 2°53.251 73.8 12 74 11.1
2005-08-23 07:07:23 51°18.481 2°53.545 68.6 12.1 66 11.1
2005-08-23 07:08:23 51°18.567 2°53.832 68.3 12 60 11.2
2005-08-23 07:09:23 51°18.657 2°54.118 68.2 12.2 63 10.9
2005-08-23 07:10:23 51°18.744 2°54.406 69.5 12.1 65 11
2005-08-23 07:11:23 51°18.828 2°54.695 69.5 12 65 10.8
2005-08-23 07:12:23 51°18.912 2°54.988 69.5 12 68 11
2005-08-23 07:13:23 51°18.998 2°55.278 69 12.2 63 10.8
2005-08-23 07:14:23 51°19.087 2°55.567 69.6 12.2 63 10.8
2005-08-23 07:15:23 51°19.173 2°55.86 71.6 12.2 68 10.5
2005-08-23 07:16:22 51°19.255 2°56.152 71.1 12 68 10.1
2005-08-23 07:17:23 51°19.338 2°56.449 71 12.1 66 10.3
2005-08-23 07:18:23 51°19.419 2°56.743 70.4 12.1 65 10.6
2005-08-23 07:19:23 51°19.5 2°57.037 71.2 12.1 69 10.3
2005-08-23 07:20:23 51°19.583 2°57.332 71.1 12.2 61 10.1
2005-08-23 07:21:23 51°19.662 2°57.63 72.2 12.2 63 9.8
2005-08-23 07:22:23 51°19.741 2°57.926 73 12 64 10.1
2005-08-23 07:23:23 51°19.82 2°58.221 71.5 12.1 72 9.9
2005-08-23 07:24:23 51°19.898 2°58.516 72.4 12 67 9.9
2005-08-23 07:25:22 51°19.978 2°58.806 71.4 12 67 10
2005-08-23 07:26:23 51°20.056 2°59.1 74.1 12 69 9.9
2005-08-23 07:27:23 51°20.132 2°59.392 71.8 11.9 66 9.4
2005-08-23 07:28:22 51°20.207 2°59.679 73.1 11.8 69 9.9
2005-08-23 07:29:23 51°20.281 2°59.97 73.3 11.7 70 9.2
2005-08-23 07:30:23 51°20.359 3°0.254 72.1 11.6 64 9.6
2005-08-23 07:31:23 51°20.432 3°0.539 70 11.6 73 9.6
2005-08-23 07:32:22 51°20.505 3°0.819 70.4 11.6 64 9.5
2005-08-23 07:33:23 51°20.58 3°1.102 71.4 11.5 67 9.4
2005-08-23 07:34:23 51°20.653 3°1.387 71.7 11.6 68 9.6
2005-08-23 07:35:23 51°20.728 3°1.666 73.8 11.5 65 9.7
2005-08-23 07:36:23 51°20.8 3°1.948 71.9 11.4 69 9.4
2005-08-23 07:37:23 51°20.874 3°2.228 72.4 11.2 64 9.7
2005-08-23 07:38:23 51°20.947 3°2.504 72.5 11.2 67 9.8
2005-08-23 07:39:23 51°21.017 3°2.78 72.9 11.2 71 9.7
2005-08-23 07:40:23 51°21.087 3°3.055 71.8 11.1 67 10
2005-08-23 07:41:23 51°21.156 3°3.331 73.2 11 68 9.9
2005-08-23 07:42:22 51°21.225 3°3.601 72.8 11.1 66 9.9
2005-08-23 07:43:23 51°21.295 3°3.873 72.5 10.9 69 10
2005-08-23 07:44:23 51°21.362 3°4.144 71.9 11 72 10.2
2005-08-23 07:45:23 51°21.431 3°4.415 71.4 10.9 68 10.3
2005-08-23 07:46:23 51°21.498 3°4.686 72.5 11 67 10.3
2005-08-23 07:47:23 51°21.568 3°4.957 72.1 11 67 10.3
2005-08-23 07:48:23 51°21.639 3°5.227 72.6 11 73 10.4
2005-08-23 07:49:23 51°21.705 3°5.5 76.9 11 75 10.5
2005-08-23 07:50:23 51°21.765 3°5.779 78.7 11.3 78 10.3
2005-08-23 07:51:23 51°21.814 3°6.063 80.2 11 74 10.7
2005-08-23 07:52:23 51°21.864 3°6.339 78.5 10.9 71 10.7
2005-08-23 07:53:23 51°21.894 3°6.621 84.5 10.7 83 10.8
2005-08-23 07:54:23 51°21.917 3°6.901 80 10.7 76 10.8
2005-08-23 07:55:23 51°21.951 3°7.18 79.8 10.7 77 11
2005-08-23 07:56:23 51°21.981 3°7.457 80 10.8 82 11.1
2005-08-23 07:57:23 51°22.011 3°7.74 81.4 11 85 11.1
2005-08-23 07:58:23 51°22.037 3°8.022 81.2 10.7 84 11
2005-08-23 07:59:23 51°22.068 3°8.304 81.8 10.8 80 11
2005-08-23 08:00:23 51°22.099 3°8.587 80.5 10.7 79 11.3
2005-08-23 08:01:23 51°22.132 3°8.873 82.7 11.2 85 11.4
2005-08-23 08:02:23 51°22.162 3°9.161 81.7 11.1 82 11.6
2005-08-23 08:03:23 51°22.194 3°9.451 78.7 10.9 73 12.1
2005-08-23 08:04:23 51°22.231 3°9.734 78.4 10.8 77 12.7
2005-08-23 08:05:23 51°22.266 3°10.014 82.3 10.9 87 12.9
2005-08-23 08:06:23 51°22.3 3°10.294 81.3 10.7 79 13.6
2005-08-23 08:07:23 51°22.337 3°10.577 80.7 11.1 73 17.4
2005-08-23 08:08:23 51°22.378 3°10.858 79.4 10.6 78 15.2
2005-08-23 08:09:23 51°22.417 3°11.131 80 10.5 78 14.5
2005-08-23 08:10:23 51°22.457 3°11.405 81.3 10.9 81 14.6
2005-08-23 08:11:23 51°22.496 3°11.682 81.1 10.9 81 14.4
2005-08-23 08:12:23 51°22.535 3°11.959 84 11 77 13.7
2005-08-23 08:13:23 51°22.577 3°12.238 78 10.8 66 13.1
2005-08-23 08:14:22 51°22.613 3°12.513 80.3 10.7 80 12.6
2005-08-23 08:15:23 51°22.655 3°12.789 83.9 10.7 81 12.4
2005-08-23 08:16:22 51°22.692 3°13.06 79.9 10.5 77 11.4
2005-08-23 08:17:23 51°22.796 3°13.265 41.9 10.7 25 10.5
2005-08-23 08:18:23 51°22.991 3°13.256 6.7 12.4 349 10.6
2005-08-23 08:19:23 51°23.196 3°13.203 5.8 12.5 350 10.8
2005-08-23 08:20:22 51°23.395 3°13.158 5.9 12.2 350 9.8
2005-08-23 08:21:23 51°23.601 3°13.113 5.8 12.5 351 9.9
2005-08-23 08:22:23 51°23.804 3°13.079 9.2 12.3 354 10.4
2005-08-23 08:23:23 51°23.995 3°13.112 28.4 11.4 19 11.7
2005-08-23 08:24:23 51°24.168 3°13.238 37.3 11.4 25 13.2
2005-08-23 08:25:23 51°24.341 3°13.36 35.5 11.2 23 17.3
2005-08-23 08:26:23 51°24.519 3°13.452 23.3 11.9 7 18.2
2005-08-23 08:27:23 51°24.719 3°13.348 348.3 13.6 329 15.5
2005-08-23 08:28:23 51°24.909 3°13.127 338.7 14.1 325 12.5
2005-08-23 08:29:23 51°25.102 3°12.911 341 14.1 327 10.9
2005-08-23 08:30:23 51°25.218 3°12.607 283.7 14.7 274 9.6
2005-08-23 08:31:23 51°25.199 3°12.204 264.5 15.4 262 9.2
2005-08-23 08:32:23 51°25.161 3°11.802 264.3 15.4 260 9.2
2005-08-23 08:33:23 51°25.12 3°11.397 264.9 15.5 262 8.7
2005-08-23 08:34:22 51°25.079 3°10.999 264.9 15.3 260 8.2
2005-08-23 08:35:23 51°25.038 3°10.597 264.7 15 260 7.9
2005-08-23 08:36:22 51°24.994 3°10.208 265.4 14.9 260 7.6
2005-08-23 08:37:23 51°24.95 3°9.815 266.5 14.9 260 7.5
2005-08-23 08:38:23 51°24.899 3°9.435 262.4 14.7 258 6.9
2005-08-23 08:39:23 51°24.852 3°9.052 264.4 14.7 258 7.7
2005-08-23 08:40:23 51°24.807 3°8.666 265.6 14.6 259 7.7
2005-08-23 08:41:23 51°24.761 3°8.278 266.9 14.6 262 7.7
2005-08-23 08:42:23 51°24.72 3°7.894 266.9 14.6 261 9.2
2005-08-23 08:43:23 51°24.707 3°7.512 287.4 13.6 278 9.1
2005-08-23 08:44:23 51°24.869 3°7.346 1.4 11.9 353 9.3
2005-08-23 08:45:23 51°25.065 3°7.29 358.2 12 347 8.1
2005-08-23 08:46:23 51°25.261 3°7.226 359.1 12.2 349 8.2
2005-08-23 08:47:23 51°25.46 3°7.162 358.7 12.3 349 8.7
2005-08-23 08:48:23 51°25.659 3°7.1 359 12.2 349 9.1
2005-08-23 08:49:23 51°25.858 3°7.04 -999 12.3 349 9.1
2005-08-23 08:50:23 51°26.043 3°7.084 37.7 11.1 38 8.8
2005-08-23 08:51:23 51°26.121 3°7.354 69.7 11.3 69 7.3
2005-08-23 08:52:23 51°26.205 3°7.616 64.7 11.2 63 7.6
2005-08-23 08:53:23 51°26.299 3°7.887 62.6 11.6 58 8.3
2005-08-23 08:54:23 51°26.395 3°8.159 63.8 11.8 64 9
2005-08-23 08:55:23 51°26.488 3°8.433 64.2 11.8 63 9.5
2005-08-23 08:56:23 51°26.579 3°8.714 65.1 11.8 62 10.1
2005-08-23 08:57:23 51°26.711 3°8.909 25.9 11 22 10.3
2005-08-23 08:58:23 51°26.888 3°8.788 339.6 12 332 10.7
2005-08-23 08:59:23 51°27.064 3°8.623 339.9 12.4 330 10.9
2005-08-23 09:00:23 51°27.24 3°8.453 339.7 12.2 329 11.3
2005-08-23 09:01:23 51°27.414 3°8.286 339.7 12.2 329 11.1
2005-08-23 09:02:23 51°27.587 3°8.117 340.2 12.4 330 11.6
2005-08-23 09:03:23 51°27.765 3°7.964 344.7 12 334 10.6
2005-08-23 09:04:23 51°27.945 3°7.818 343.9 12.3 332 12.1
2005-08-23 09:05:23 51°28.127 3°7.671 344.6 12.3 334 13.2
2005-08-23 09:06:23 51°28.313 3°7.519 344.5 12.5 333 13.9
2005-08-23 09:07:23 51°28.497 3°7.37 344.2 12.4 333 14.5
2005-08-23 09:08:23 51°28.679 3°7.218 343.3 12.3 332 15.3
2005-08-23 09:09:23 51°28.86 3°7.067 344.6 12.3 332 15.3
2005-08-23 09:10:23 51°29.043 3°6.915 343.6 12.2 332 16
2005-08-23 09:11:23 51°29.224 3°6.766 344.3 12.1 333 16.9
2005-08-23 09:12:23 51°29.402 3°6.618 344 12.3 333 18.2
2005-08-23 09:13:23 51°29.575 3°6.447 339.6 12.1 327 20
2005-08-23 09:14:23 51°29.745 3°6.271 339.8 11.9 327 21.8
2005-08-23 09:15:23 51°29.913 3°6.097 339.7 12.2 327 23.2
2005-08-23 09:16:23 51°30.076 3°5.929 340.8 11.1 326 22.8
2005-08-23 09:17:23 51°30.243 3°5.758 339.3 12.1 327 23.1
2005-08-23 09:18:23 51°30.419 3°5.583 340.3 12.4 328 22.2
2005-08-23 09:19:23 51°30.59 3°5.411 340.1 12 328 22
2005-08-23 09:20:23 51°30.761 3°5.238 340.8 12.3 330 23.2
2005-08-23 09:21:23 51°30.93 3°5.065 340.4 12.2 329 24.5
2005-08-23 09:22:23 51°31.099 3°4.889 340.3 12.2 327 26.6
2005-08-23 09:23:23 51°31.273 3°4.715 340.9 12.1 329 26.9
2005-08-23 09:24:23 51°31.443 3°4.544 340.4 12.2 329 27.7
2005-08-23 09:25:23 51°31.614 3°4.37 340.5 11.7 327 27.4
2005-08-23 09:26:23 51°31.784 3°4.197 339.7 12 326 27.9
2005-08-23 09:27:23 51°31.956 3°4.026 340.6 12.4 328 28.6
2005-08-23 09:28:23 51°32.128 3°3.854 339.3 11.9 326 28.4
2005-08-23 09:29:23 51°32.297 3°3.682 340.5 12.2 327 30.1
2005-08-23 09:30:23 51°32.468 3°3.515 340.7 12 328 29.4
2005-08-23 09:31:23 51°32.639 3°3.348 340.4 11.6 329 26.4
2005-08-23 09:32:23 51°32.812 3°3.182 340.3 12 329 20.8
2005-08-23 09:33:23 51°32.88 3°2.882 278.1 13.1 271 20
2005-08-23 09:34:23 51°32.789 3°2.53 252.1 14.6 245 20
2005-08-23 09:35:23 51°32.7 3°2.167 254.8 14.7 251 22.4
2005-08-23 09:36:23 51°32.613 3°1.806 256.2 14.4 248 23.9
2005-08-23 09:37:23 51°32.534 3°1.44 260.5 14.4 254 24.3
2005-08-23 09:38:23 51°32.462 3°1.074 260 14.5 254 24.5
2005-08-23 09:39:23 51°32.389 3°0.707 259.8 14.6 251 25.6
2005-08-23 09:40:23 51°32.314 3°0.336 260.8 14.7 252 27
2005-08-23 09:41:23 51°32.238 2°59.966 259.6 14.7 251 29.2
2005-08-23 09:42:23 51°32.164 2°59.593 260.2 14.5 256 29.3
2005-08-23 09:43:23 51°32.092 2°59.217 261.2 14.7 249 31.5
2005-08-23 09:44:23 51°32.016 2°58.84 260.4 14.9 251 34.3
2005-08-23 09:45:23 51°31.939 2°58.465 259.9 14.9 252 35.2
2005-08-23 09:46:23 51°31.866 2°58.085 259.8 14.8 254 35.2
2005-08-23 09:47:23 51°31.787 2°57.707 261.4 14.8 254 32.9
2005-08-23 09:48:23 51°31.716 2°57.339 260.5 14.5 252 28.1
2005-08-23 09:49:23 51°31.642 2°56.972 260.4 14.3 253 21.9
2005-08-23 09:50:23 51°31.565 2°56.613 259.8 14.4 251 18.7
2005-08-23 09:51:23 51°31.487 2°56.251 261.6 14.3 253 17
2005-08-23 09:52:23 51°31.483 2°55.905 307.5 11.7 305 17.9
2005-08-23 09:53:23 51°31.635 2°55.895 34.4 -999 -999 18.8
2005-08-23 09:54:23 51°31.762 2°56.082 44 10.7 43 18.1
2005-08-23 09:55:23 51°31.892 2°56.281 46.4 10.8 48 15.2
2005-08-23 09:56:23 51°32.005 2°56.501 50 11 50 19.6
2005-08-23 09:57:23 51°32.129 2°56.713 44.8 11 44 19.6
2005-08-23 09:58:23 51°32.254 2°56.916 46.2 10.6 45 14.7
2005-08-23 09:59:23 51°32.382 2°57.119 44.4 10.9 43 18.5
2005-08-23 10:00:23 51°32.513 2°57.322 44.2 11 44 18.8
2005-08-23 10:01:23 51°32.643 2°57.525 45.2 11.1 45 18.8
2005-08-23 10:02:23 51°32.772 2°57.729 45.9 11 44 16.2
2005-08-23 10:03:23 51°32.9 2°57.932 45.5 10.9 44 15.7
2005-08-23 10:04:23 51°33.035 2°58.132 44.7 11.1 43 17.7
2005-08-23 10:05:23 51°33.166 2°58.331 46.5 10.9 44 16.6
2005-08-23 10:06:23 51°33.295 2°58.543 47.5 11.3 47 17.6
2005-08-23 10:07:23 51°33.424 2°58.756 47.8 11.1 48 18.5
2005-08-23 10:08:23 51°33.551 2°58.972 47.9 11.1 48 18.1
2005-08-23 10:09:23 51°33.672 2°59.181 48.4 10.7 47 18.3
2005-08-23 10:10:23 51°33.798 2°59.396 47.7 10.9 47 18.8
2005-08-23 10:11:23 51°33.923 2°59.606 47.2 11.1 47 18
2005-08-23 10:12:23 51°34.053 2°59.82 48.6 11.1 47 17.4
2005-08-23 10:13:23 51°34.175 3°0.04 49.5 11.1 50 17.2
2005-08-23 10:14:23 51°34.298 3°0.263 49.5 11 50 16.4
2005-08-23 10:15:23 51°34.421 3°0.485 50 11.4 49 17.2
2005-08-23 10:16:23 51°34.543 3°0.709 50 11.1 49 17
2005-08-23 10:17:23 51°34.664 3°0.933 49.7 11 48 17.7
2005-08-23 10:18:23 51°34.826 3°1.004 0.4 10.7 348 19.5
2005-08-23 10:19:23 51°34.971 3°0.803 327.3 12 313 22.1
2005-08-23 10:20:23 51°35.11 3°0.564 328 12.5 314 22.5
2005-08-23 10:21:23 51°35.228 3°0.298 308.3 12.8 296 26.7
2005-08-23 10:22:23 51°35.172 2°59.936 249.8 14.9 243 28.4
2005-08-23 10:23:23 51°35.057 2°59.575 249.6 15.1 245 28.7
2005-08-23 10:24:23 51°34.935 2°59.222 247.5 15.3 239 24.3
2005-08-23 10:25:23 51°34.805 2°58.875 245.9 15.2 239 26.1
2005-08-23 10:26:23 51°34.673 2°58.524 245.8 15.2 236 28.5
2005-08-23 10:27:23 51°34.539 2°58.174 245.3 15 238 27.7
2005-08-23 10:28:23 51°34.406 2°57.828 246.4 15 241 25.9
2005-08-23 10:29:23 51°34.276 2°57.489 245.4 15 239 28.3
2005-08-23 10:30:23 51°34.143 2°57.139 244.5 15.2 238 28.9
2005-08-23 10:31:23 51°34.012 2°56.797 245.2 14.9 238 29.5
2005-08-23 10:32:23 51°33.882 2°56.454 247.7 15.2 238 29
2005-08-23 10:33:23 51°33.754 2°56.115 245.2 14.8 238 28.7
2005-08-23 10:34:23 51°33.626 2°55.776 245 15 242 28.1
2005-08-23 10:35:23 51°33.491 2°55.439 244.5 14.9 238 25.8
2005-08-23 10:36:23 51°33.352 2°55.099 243.3 15 237 22.9
2005-08-23 10:37:23 51°33.219 2°54.762 243.7 15 237 26.1
2005-08-23 10:38:23 51°33.084 2°54.425 242 15.1 240 24.8
2005-08-23 10:39:23 51°32.949 2°54.093 243 14.8 234 26.4
2005-08-23 10:40:23 51°32.813 2°53.751 242.4 15.4 238 25
2005-08-23 10:41:23 51°32.674 2°53.416 240.9 15 235 24
2005-08-23 10:42:23 51°32.535 2°53.081 241.5 15.2 243 27.1
2005-08-23 10:43:23 51°32.395 2°52.752 242.3 14.9 238 27.6
2005-08-23 10:44:23 51°32.25 2°52.425 239.9 15 237 25.9
2005-08-23 10:45:23 51°32.108 2°52.09 242.4 15 234 25
2005-08-23 10:46:23 51°31.968 2°51.757 240.2 14.9 236 27.3
2005-08-23 10:47:23 51°31.829 2°51.425 242.4 15.1 238 26.2
2005-08-23 10:48:23 51°31.689 2°51.092 242.1 15.3 238 28.8
2005-08-23 10:49:23 51°31.55 2°50.756 242.2 14.9 239 28.8
2005-08-23 10:50:23 51°31.414 2°50.421 244.1 15.1 239 28.2
2005-08-23 10:51:23 51°31.277 2°50.091 240.9 15 237 28.5
2005-08-23 10:52:23 51°31.138 2°49.758 241.9 14.9 235 27.8
2005-08-23 10:53:23 51°30.999 2°49.425 241.3 15.1 238 27.2
2005-08-23 10:54:23 51°30.861 2°49.089 242.5 15.1 234 25.8
2005-08-23 10:55:23 51°30.72 2°48.756 241.5 14.7 237 26.1
2005-08-23 10:56:23 51°30.585 2°48.42 240.2 15.1 238 25.9
2005-08-23 10:57:23 51°30.448 2°48.082 242.4 15 237 26.6
2005-08-23 10:58:23 51°30.31 2°47.749 242.2 14.9 238 25.8
2005-08-23 10:59:23 51°30.172 2°47.414 240.9 15.1 233 25.7
2005-08-23 11:00:23 51°30.037 2°47.081 241 15 234 25.8
2005-08-23 11:01:23 51°29.899 2°46.745 239.6 14.9 235 25.2
2005-08-23 11:02:23 51°29.766 2°46.412 241.6 14.8 234 25.8
2005-08-23 11:03:23 51°29.634 2°46.076 242.3 14.6 235 25.8
2005-08-23 11:04:23 51°29.516 2°45.733 254.4 14.5 249 22.6
2005-08-23 11:05:23 51°29.524 2°45.377 299.3 13 291 27
2005-08-23 11:06:23 51°29.678 2°45.171 340.7 12.1 328 28.4
2005-08-23 11:07:23 51°29.861 2°45.05 350.3 11.8 341 29.8
2005-08-23 11:08:23 51°30.047 2°44.984 2.5 11.6 349 31.9
2005-08-23 11:09:23 51°30.204 2°45.099 42.8 10.7 40 31.7
2005-08-23 11:10:23 51°30.315 2°45.331 53.7 11.1 53 32.4
2005-08-23 11:11:23 51°30.421 2°45.574 54 11.1 52 30.9
2005-08-23 11:12:23 51°30.524 2°45.815 56.6 10.8 56 29.6
2005-08-23 11:13:23 51°30.628 2°46.061 55.8 11.2 56 31.7
2005-08-23 11:14:23 51°30.737 2°46.307 54.7 11.4 55 28.7
2005-08-23 11:15:23 51°30.842 2°46.551 56.3 11.1 55 27.7
2005-08-23 11:16:23 51°30.946 2°46.794 56.1 10.9 55 28.1
2005-08-23 11:17:23 51°31.047 2°47.037 57.1 10.9 57 28.2
2005-08-23 11:18:23 51°31.15 2°47.281 55.3 11 53 29.2
2005-08-23 11:19:23 51°31.251 2°47.524 57.2 11 57 28.5
2005-08-23 11:20:23 51°31.35 2°47.771 55.8 11 57 31.9
2005-08-23 11:21:23 51°31.453 2°48.015 56.3 11.2 59 31
2005-08-23 11:22:23 51°31.552 2°48.261 57.3 11 58 32.6
2005-08-23 11:23:23 51°31.649 2°48.511 57.5 10.9 57 32.5
2005-08-23 11:24:23 51°31.744 2°48.759 56.8 11 58 32.2
2005-08-23 11:25:23 51°31.836 2°49.004 58.6 10.9 60 31.4
2005-08-23 11:26:23 51°31.93 2°49.254 58.8 11 60 30.9
2005-08-23 11:27:23 51°32.025 2°49.506 57.9 11 59 32.4
2005-08-23 11:28:23 51°32.119 2°49.752 58.8 10.9 58 32.5
2005-08-23 11:29:23 51°32.217 2°50.005 58 10.8 60 28.2
2005-08-23 11:30:23 51°32.314 2°50.253 57.5 10.9 56 32.4
2005-08-23 11:31:23 51°32.413 2°50.507 57.2 11 55 30.5
2005-08-23 11:32:23 51°32.509 2°50.755 58 11 58 30.3
2005-08-23 11:33:23 51°32.608 2°51.005 58.5 11.1 56 33.4
2005-08-23 11:34:23 51°32.707 2°51.257 58.7 11.3 58 30.7
2005-08-23 11:35:23 51°32.806 2°51.51 58.2 11.1 58 30.6
2005-08-23 11:36:23 51°32.904 2°51.761 58 11.2 58 31.4
2005-08-23 11:37:23 51°33.005 2°52.008 58.2 11.4 57 31.5
2005-08-23 11:38:23 51°33.107 2°52.265 58 11.3 58 29.9
2005-08-23 11:39:23 51°33.211 2°52.513 57.2 11.2 56 30.1
2005-08-23 11:40:23 51°33.314 2°52.767 58.2 11.2 57 31.3
2005-08-23 11:41:23 51°33.415 2°53.019 57.2 11.1 55 31.3
2005-08-23 11:42:23 51°33.506 2°53.28 68.4 11.3 70 28.9
2005-08-23 11:43:23 51°33.47 2°53.585 113.1 12.4 121 30.4
2005-08-23 11:44:23 51°33.297 2°53.809 146.9 13.5 142 28.1
2005-08-23 11:45:23 51°33.093 2°53.973 150.5 14.1 155 25
2005-08-23 11:46:23 51°32.885 2°54.134 150.6 13.5 158 24.9
2005-08-23 11:47:23 51°32.677 2°54.297 151.6 14.1 153 24.9
2005-08-23 11:48:23 51°32.466 2°54.46 150.9 13.2 152 22.2
2005-08-23 11:49:23 51°32.258 2°54.629 148.5 14.1 148 21.7
2005-08-23 11:50:23 51°32.046 2°54.788 156 14 152 19.4
2005-08-23 11:51:23 51°31.827 2°54.929 156.3 13.7 160 20.8
2005-08-23 11:52:23 51°31.61 2°55.08 156 14 157 19.9
2005-08-23 11:53:23 51°31.392 2°55.231 154.2 13.9 156 17.7
2005-08-23 11:54:23 51°31.174 2°55.384 154.2 13.8 155 18.5
2005-08-23 11:55:23 51°30.955 2°55.54 158.2 14.1 159 27.1
2005-08-23 11:56:23 51°30.741 2°55.68 158.4 14 160 38.1
2005-08-23 11:57:23 51°30.525 2°55.801 156.8 13.8 160 34.9
2005-08-23 11:58:23 51°30.305 2°55.915 159.5 14.2 163 31.9
2005-08-23 11:59:23 51°30.085 2°56.037 157.4 13.8 165 30.6
2005-08-23 12:00:23 51°29.869 2°56.167 155.4 14.2 155 28.9
2005-08-23 12:01:23 51°29.65 2°56.295 156.6 14.1 158 26.8
2005-08-23 12:02:23 51°29.429 2°56.426 154.2 13.8 160 25.8
2005-08-23 12:03:23 51°29.212 2°56.552 155.1 13.3 157 24.8
2005-08-23 12:04:23 51°28.996 2°56.692 154.8 14.3 162 24.3
2005-08-23 12:05:23 51°28.773 2°56.815 165.4 14.2 166 27.2
2005-08-23 12:06:23 51°28.535 2°56.81 187.4 14.5 186 27.1
2005-08-23 12:07:23 51°28.299 2°56.711 197 14.5 194 27.9
2005-08-23 12:08:23 51°28.065 2°56.598 196.7 14.9 196 28.1
2005-08-23 12:09:23 51°27.831 2°56.496 196.5 14.3 200 29.1
2005-08-23 12:10:23 51°27.595 2°56.394 193.6 14.8 192 28
2005-08-23 12:11:23 51°27.359 2°56.295 198.5 14.8 201 28.9
2005-08-23 12:12:23 51°27.119 2°56.191 194.8 14.8 195 28.5
2005-08-23 12:13:23 51°26.881 2°56.091 197.1 14.8 195 27.5
2005-08-23 12:14:23 51°26.642 2°55.995 194.3 14.2 191 26.1
2005-08-23 12:15:23 51°26.41 2°55.896 196.5 14.7 192 23.6
2005-08-23 12:16:23 51°26.171 2°55.804 194.9 14.4 196 20.6
2005-08-23 12:17:23 51°25.932 2°55.713 195.8 14.8 188 18.4
2005-08-23 12:18:23 51°25.697 2°55.621 195.9 14.1 195 19.4
2005-08-23 12:19:23 51°25.464 2°55.533 195.3 14.7 196 18
2005-08-23 12:20:23 51°25.233 2°55.448 194.9 14.7 193 18.1
2005-08-23 12:21:23 51°25.002 2°55.362 194.9 14.3 198 20.6
2005-08-23 12:22:23 51°24.773 2°55.281 192.1 14.3 193 22.6
2005-08-23 12:23:23 51°24.543 2°55.186 195.2 13.9 189 23.6
2005-08-23 12:24:23 51°24.316 2°55.094 195.9 14.6 190 23.4
2005-08-23 12:25:23 51°24.086 2°55.003 196.5 14.2 191 22.1
2005-08-23 12:26:23 51°23.853 2°54.905 196 14.2 195 21
2005-08-23 12:27:23 51°23.618 2°54.802 194.1 14.5 197 21
2005-08-23 12:28:23 51°23.386 2°54.703 194.9 14.8 193 20.2
2005-08-23 12:29:23 51°23.157 2°54.606 194.3 14.3 191 18.1
2005-08-23 12:30:23 51°22.927 2°54.507 194.5 14.3 193 21.4
2005-08-23 12:31:23 51°22.698 2°54.411 194.7 13.9 194 22.7
2005-08-23 12:32:23 51°22.47 2°54.319 195.2 14.5 193 21.1
2005-08-23 12:33:23 51°22.244 2°54.224 197.9 14.2 189 19.9
2005-08-23 12:34:23 51°22.02 2°54.128 198.5 14.5 200 19.9
2005-08-23 12:35:23 51°21.791 2°54.033 193.6 14.3 192 18.1
2005-08-23 12:36:23 51°21.56 2°53.94 193.6 13.8 194 17.7
2005-08-23 12:37:23 51°21.329 2°53.839 194.8 14.2 196 17.7
2005-08-23 12:38:23 51°21.102 2°53.741 196.6 14.2 198 17.7
2005-08-23 12:39:23 51°20.874 2°53.644 192.9 14.3 195 17.7
2005-08-23 12:40:23 51°20.645 2°53.541 193.7 14.3 195 17.6
2005-08-23 12:41:23 51°20.418 2°53.437 194.8 14.6 196 17.5
2005-08-23 12:42:23 51°20.188 2°53.334 193.2 14.4 200 17.3
2005-08-23 12:43:23 51°19.956 2°53.222 193 14.8 194 16.8
2005-08-23 12:44:23 51°19.727 2°53.11 195.9 14.9 201 16.1
2005-08-23 12:45:23 51°19.497 2°53.008 194.5 13.8 195 15.4
2005-08-23 12:46:23 51°19.27 2°52.901 194.7 14.1 196 14.6
2005-08-23 12:47:23 51°19.045 2°52.8 199.3 13.7 201 13.9
2005-08-23 12:48:23 51°18.818 2°52.7 195.8 14.4 195 13.2
2005-08-23 12:49:23 51°18.593 2°52.597 196.9 14.3 196 12.8
2005-08-23 12:50:23 51°18.364 2°52.494 194 14.3 192 12.3
2005-08-23 12:51:23 51°18.139 2°52.39 197.7 14.1 198 12.3
2005-08-23 12:52:23 51°17.911 2°52.326 183.8 13.7 185 11.8
2005-08-23 12:53:23 51°17.679 2°52.311 182.1 13.7 180 11.8
2005-08-23 12:54:23 51°17.451 2°52.304 179.2 14.1 177 11.9
2005-08-23 12:55:23 51°17.221 2°52.315 172.1 13.5 182 11.7
2005-08-23 12:56:23 51°16.999 2°52.405 160.1 13.6 163 11.3
2005-08-23 12:57:23 51°16.783 2°52.524 159.7 14.3 160 11.5
2005-08-23 12:58:23 51°16.572 2°52.662 155 13.4 155 12.9
2005-08-23 12:59:23 51°16.362 2°52.813 156.7 13.8 157 13.7
2005-08-23 13:00:23 51°16.155 2°52.963 154.8 14 154 13.8
2005-08-23 13:01:23 51°15.947 2°53.101 155.8 13.5 157 13.4
2005-08-23 13:02:23 51°15.738 2°53.248 155.6 13.9 157 12.9
2005-08-23 13:03:23 51°15.531 2°53.405 151.1 13.8 151 12.4
2005-08-23 13:04:23 51°15.33 2°53.556 152.6 13.6 154 12
2005-08-23 13:05:23 51°15.133 2°53.729 148.9 13.1 154 11.1
2005-08-23 13:06:23 51°14.971 2°53.889 146 10 144 11.1
2005-08-23 13:07:23 51°14.815 2°54.076 142.2 12.3 146 11.4
2005-08-23 13:08:23 51°14.667 2°54.311 134.8 12.7 133 11.9
2005-08-23 13:09:23 51°14.54 2°54.585 124.5 13.1 123 12.2
2005-08-23 13:10:23 51°14.428 2°54.854 125.9 11 120 12.2
2005-08-23 13:11:23 51°14.348 2°55.071 126.6 9.2 121 12.5
2005-08-23 13:12:23 51°14.261 2°55.249 128.8 8.7 126 12.4
2005-08-23 13:13:23 51°14.171 2°55.388 145.8 7.2 143 12.3
2005-08-23 13:14:24 51°14.043 2°55.482 160.7 8.8 158 11.7
2005-08-23 13:15:23 51°13.906 2°55.578 158.5 9.2 155 11.7
2005-08-23 13:16:23 51°13.769 2°55.695 147.9 8.7 143 11.2
2005-08-23 13:17:23 51°13.691 2°55.828 132.5 6.3 129 11.1
2005-08-23 13:18:23 51°13.64 2°55.948 124.8 5.1 123 11.4
2005-08-23 13:19:24 51°13.608 2°56.055 114.5 3.5 111 11.7
2005-08-23 13:20:24 51°13.597 2°56.093 123.8 0.3 134 -999